Ana Sayfa
METAR-TAF:

METAR-TAF

Havaalanları :

Llano Municipal Airport

Llano, Teksas, Amerika Birleşik Devletleri

Enlem: 30-47-01N, Boylam: 098-39-43W, yükseklik: 336 m

Güncel hava durumu gözlemi

Rapor saat 05:30 UTC de 33 dakika önce yapıldı.
Sakin rüzgar
Sıcaklık 22°C
Nem 83%
Basınç 1019 hPa
Görüş mesafesi: 16.1 km
Açık gökyüzü

METAR: KAQO 260530Z AUTO 00000KT 10SM CLR 22/19 A3009 RMK AO2

Saat: 01:03 (06:03 UTC)


TAF: eksik

4.000'den fazla havaalanı için hava durumu gözlemleri ve tahminleri (METAR ve TAF raporları).

Kullanılabilir istasyonlar harita üzerinde sarı ve kırmızı noktalarla gösterilir.

İstasyonun adını görmek için fareyi noktanın üzerinde gezdirin.

Sonrasında hava gözlem ve tahminlerini görmek için tıklayın.

Haritayı değiştirmek için: yaklaştırmak için siyah artı işaretli yeşil düğmeye ve uzaklaştırmak için de eksi işaretli düğmeye hızla tıklayın; bitişik haritalar için yeşil okları kullanın.


METAR-TAF: